createdAt,value
2018-12-17T00:00:48.040Z,88.00
2018-12-17T00:03:16.579Z,88.00
2018-12-17T00:05:45.338Z,88.20
2018-12-17T00:08:13.859Z,88.20
2018-12-17T00:10:42.399Z,88.20
2018-12-17T00:13:10.914Z,88.10
2018-12-17T00:15:39.466Z,87.90
2018-12-17T00:18:07.999Z,88.00
2018-12-17T00:20:36.566Z,87.90
2018-12-17T00:23:05.106Z,87.90
2018-12-17T00:25:33.670Z,87.80
2018-12-17T00:28:08.061Z,87.90
2018-12-17T00:30:32.774Z,88.00
2018-12-17T00:33:01.299Z,88.00
2018-12-17T00:35:29.838Z,88.20
2018-12-17T00:37:58.374Z,88.40
2018-12-17T00:40:27.109Z,88.30
2018-12-17T00:42:55.638Z,88.20
2018-12-17T00:45:24.196Z,88.00
2018-12-17T00:47:52.705Z,88.10
2018-12-17T00:50:21.219Z,88.00
2018-12-17T00:52:49.763Z,87.90
2018-12-17T00:55:18.313Z,88.00
2018-12-17T00:57:46.839Z,88.20
2018-12-17T01:00:15.502Z,88.30
2018-12-17T01:02:44.026Z,88.40
2018-12-17T01:05:12.560Z,88.50
2018-12-17T01:07:41.115Z,88.60
2018-12-17T01:10:09.908Z,88.70
2018-12-17T01:12:38.457Z,88.90
2018-12-17T01:15:07.834Z,89.00
2018-12-17T01:17:36.357Z,89.10
2018-12-17T01:20:06.133Z,89.20
2018-12-17T01:22:34.660Z,89.20
2018-12-17T01:25:03.435Z,89.00
2018-12-17T01:27:32.222Z,89.10
2018-12-17T01:30:00.859Z,89.20
2018-12-17T01:32:29.510Z,89.40
2018-12-17T01:34:58.130Z,89.50
2018-12-17T01:37:26.667Z,90.00
2018-12-17T01:39:55.189Z,90.10
2018-12-17T01:42:23.733Z,90.30
2018-12-17T01:44:52.245Z,90.60
2018-12-17T01:47:20.763Z,90.80
2018-12-17T01:49:49.292Z,90.90
2018-12-17T01:52:17.845Z,91.00
2018-12-17T01:54:46.377Z,91.10
2018-12-17T01:57:14.901Z,91.10
2018-12-17T01:59:43.418Z,91.10
2018-12-17T02:02:12.073Z,91.10
2018-12-17T02:04:40.626Z,91.10
2018-12-17T02:07:09.150Z,91.10
2018-12-17T02:09:37.701Z,91.10
2018-12-17T02:12:06.221Z,91.10
2018-12-17T02:14:35.359Z,91.10
2018-12-17T02:17:15.920Z,91.10
2018-12-17T02:19:53.113Z,91.10
2018-12-17T02:22:21.658Z,91.20
2018-12-17T02:24:50.171Z,91.20
2018-12-17T02:27:18.802Z,91.10
2018-12-17T02:29:47.345Z,91.10
2018-12-17T02:32:15.927Z,91.20
2018-12-17T02:34:44.473Z,91.20
2018-12-17T02:37:13.024Z,91.30
2018-12-17T02:39:41.557Z,91.20
2018-12-17T02:42:10.102Z,91.20
2018-12-17T02:44:38.642Z,91.10
2018-12-17T02:47:07.505Z,91.10
2018-12-17T02:49:36.162Z,91.00
2018-12-17T02:52:04.686Z,90.90
2018-12-17T02:54:33.342Z,90.80
2018-12-17T02:57:01.886Z,90.90
2018-12-17T02:59:30.433Z,90.80
2018-12-17T03:01:58.953Z,90.70
2018-12-17T03:04:27.627Z,90.60
2018-12-17T03:06:56.178Z,90.50
2018-12-17T03:09:25.235Z,90.50
2018-12-17T03:11:53.767Z,90.60
2018-12-17T03:14:22.303Z,90.70
2018-12-17T03:16:50.847Z,90.70
2018-12-17T03:19:19.366Z,90.70
2018-12-17T03:21:47.905Z,90.60
2018-12-17T03:24:16.421Z,90.60
2018-12-17T03:26:44.980Z,90.50
2018-12-17T03:29:13.517Z,90.30
2018-12-17T03:31:42.277Z,90.20
2018-12-17T03:34:10.955Z,90.30
2018-12-17T03:36:39.485Z,90.30
2018-12-17T03:39:08.021Z,90.30
2018-12-17T03:41:36.999Z,90.30
2018-12-17T03:44:05.734Z,90.30
2018-12-17T03:46:34.241Z,90.40
2018-12-17T03:49:02.787Z,90.40
2018-12-17T03:51:31.347Z,90.40
2018-12-17T03:54:06.324Z,90.50
2018-12-17T03:56:34.863Z,90.50
2018-12-17T03:59:03.514Z,90.60
2018-12-17T04:01:32.053Z,90.60
2018-12-17T04:04:00.582Z,90.60
2018-12-17T04:06:29.150Z,90.60
2018-12-17T04:08:57.674Z,90.80
2018-12-17T04:11:26.224Z,90.80
2018-12-17T04:13:54.762Z,90.90
2018-12-17T04:16:23.285Z,90.90
2018-12-17T04:18:51.813Z,90.90
2018-12-17T04:21:20.347Z,90.90
2018-12-17T04:23:48.897Z,90.80
2018-12-17T04:26:17.439Z,90.80
2018-12-17T04:28:45.958Z,90.80
2018-12-17T04:31:14.490Z,90.80
2018-12-17T04:33:43.018Z,90.80
2018-12-17T04:36:11.558Z,90.80
2018-12-17T04:38:40.106Z,90.80
2018-12-17T04:41:08.639Z,90.90
2018-12-17T04:43:37.250Z,90.80
2018-12-17T04:46:07.190Z,90.80
2018-12-17T04:48:35.822Z,90.70
2018-12-17T04:51:05.586Z,90.70
2018-12-17T04:53:34.158Z,90.60
2018-12-17T04:56:02.684Z,90.60
2018-12-17T04:58:31.225Z,90.60
2018-12-17T05:00:59.734Z,90.70
2018-12-17T05:03:28.304Z,90.60
2018-12-17T05:05:56.929Z,90.50
2018-12-17T05:08:25.458Z,90.40
2018-12-17T05:10:54.039Z,90.30
2018-12-17T05:13:22.570Z,90.30
2018-12-17T05:15:51.137Z,90.20
2018-12-17T05:18:19.674Z,90.40
2018-12-17T05:20:48.306Z,90.40
2018-12-17T05:23:16.850Z,90.40
2018-12-17T05:25:45.373Z,90.30
2018-12-17T05:28:13.899Z,90.30
2018-12-17T05:30:42.435Z,90.20
2018-12-17T05:33:11.222Z,90.00
2018-12-17T05:35:39.779Z,89.90
2018-12-17T05:38:08.314Z,89.90
2018-12-17T05:40:36.858Z,89.90
2018-12-17T05:43:05.404Z,89.90
2018-12-17T05:45:33.935Z,90.20
2018-12-17T05:48:02.443Z,89.90
2018-12-17T05:50:30.994Z,90.00
2018-12-17T05:52:59.527Z,90.20
2018-12-17T05:55:28.038Z,90.20
2018-12-17T05:57:56.561Z,90.10
2018-12-17T06:00:25.434Z,90.20
2018-12-17T06:02:53.961Z,90.20
2018-12-17T06:05:22.510Z,90.20
2018-12-17T06:07:51.066Z,90.50
2018-12-17T06:10:19.590Z,90.70
2018-12-17T06:12:48.130Z,90.90
2018-12-17T06:15:16.650Z,91.00
2018-12-17T06:17:45.167Z,91.00
2018-12-17T06:20:13.709Z,91.00
2018-12-17T06:22:42.230Z,91.10
2018-12-17T06:25:10.787Z,91.10
2018-12-17T06:27:39.349Z,91.10
2018-12-17T06:30:08.040Z,91.20
2018-12-17T06:32:36.578Z,91.10
2018-12-17T06:35:05.554Z,91.10
2018-12-17T06:37:34.114Z,91.10
2018-12-17T06:40:02.652Z,90.90
2018-12-17T06:42:31.177Z,90.80
2018-12-17T06:44:59.742Z,90.90
2018-12-17T06:47:28.277Z,90.70
2018-12-17T06:49:56.835Z,90.60
2018-12-17T06:52:25.367Z,90.50
2018-12-17T06:54:54.881Z,90.80
2018-12-17T06:57:23.770Z,90.50
2018-12-17T06:59:52.326Z,90.60
2018-12-17T07:02:20.866Z,90.60
2018-12-17T07:04:49.391Z,90.50
2018-12-17T07:07:18.211Z,90.50
2018-12-17T07:09:46.759Z,90.30
2018-12-17T07:12:15.326Z,90.30
2018-12-17T07:14:43.865Z,90.40
2018-12-17T07:17:12.419Z,90.30
2018-12-17T07:19:40.986Z,90.30
2018-12-17T07:22:09.539Z,90.20
2018-12-17T07:24:38.065Z,90.20
2018-12-17T07:27:06.730Z,90.20
2018-12-17T07:29:35.295Z,90.10
2018-12-17T07:32:03.862Z,90.10
2018-12-17T07:34:32.734Z,90.10
2018-12-17T07:37:01.370Z,90.00
2018-12-17T07:39:31.985Z,90.10
2018-12-17T07:42:00.566Z,90.10
2018-12-17T07:44:29.098Z,90.10
2018-12-17T07:46:57.611Z,90.10
2018-12-17T07:49:26.142Z,90.00
2018-12-17T07:51:54.666Z,90.00
2018-12-17T07:54:23.418Z,89.90
2018-12-17T07:56:51.946Z,89.90
2018-12-17T07:59:20.491Z,89.50
2018-12-17T08:01:49.023Z,89.50
2018-12-17T08:04:17.541Z,89.50
2018-12-17T08:06:46.070Z,89.50
2018-12-17T08:09:14.621Z,89.60
2018-12-17T08:11:43.178Z,89.70
2018-12-17T08:14:11.718Z,90.00
2018-12-17T08:16:40.255Z,89.10
2018-12-17T08:19:08.783Z,88.90
2018-12-17T08:21:37.410Z,88.60
2018-12-17T08:24:05.946Z,88.70
2018-12-17T08:26:34.475Z,88.80
2018-12-17T08:29:02.988Z,89.00
2018-12-17T08:31:31.521Z,89.10
2018-12-17T08:34:00.041Z,89.00
2018-12-17T08:36:28.565Z,89.30
2018-12-17T08:38:57.098Z,89.30
2018-12-17T08:41:25.656Z,89.20
2018-12-17T08:43:54.246Z,89.10
2018-12-17T08:46:22.761Z,88.60
2018-12-17T08:48:51.281Z,88.90
2018-12-17T08:51:19.913Z,88.20
2018-12-17T08:53:48.448Z,88.00
2018-12-17T08:56:16.982Z,88.20
2018-12-17T08:58:45.519Z,88.30
2018-12-17T09:01:14.050Z,88.60
2018-12-17T09:03:42.739Z,88.30
2018-12-17T09:06:11.627Z,88.00
2018-12-17T09:08:40.145Z,88.10
2018-12-17T09:11:08.686Z,87.60
2018-12-17T09:13:37.223Z,87.20
2018-12-17T09:16:05.810Z,87.30
2018-12-17T09:18:34.368Z,87.00
2018-12-17T09:21:02.934Z,87.10
2018-12-17T09:23:31.454Z,87.10
2018-12-17T09:26:00.007Z,87.60
2018-12-17T09:28:28.537Z,86.70
2018-12-17T09:30:57.058Z,86.60
2018-12-17T09:33:25.590Z,86.70
2018-12-17T09:35:54.102Z,86.70
2018-12-17T09:38:22.633Z,86.80
2018-12-17T09:40:51.162Z,86.90
2018-12-17T09:43:19.689Z,86.90
2018-12-17T09:45:48.239Z,86.70
2018-12-17T09:48:16.874Z,86.50
2018-12-17T09:50:45.415Z,86.70
2018-12-17T09:53:14.086Z,86.70
2018-12-17T09:55:42.605Z,86.80
2018-12-17T09:58:11.137Z,86.60
2018-12-17T10:00:39.654Z,86.50
2018-12-17T10:03:08.201Z,86.50
2018-12-17T10:05:36.742Z,86.50
2018-12-17T10:08:05.334Z,86.00
2018-12-17T10:10:33.886Z,86.00
2018-12-17T10:13:02.409Z,86.00
2018-12-17T10:15:31.013Z,86.20
2018-12-17T10:17:59.554Z,86.20
2018-12-17T10:20:28.222Z,86.20
2018-12-17T10:22:56.757Z,86.10
2018-12-17T10:25:25.305Z,85.90
2018-12-17T10:27:53.840Z,85.80
2018-12-17T10:30:22.358Z,85.80
2018-12-17T10:32:50.883Z,86.00
2018-12-17T10:35:19.413Z,86.10
2018-12-17T10:37:47.961Z,85.90
2018-12-17T10:40:16.497Z,85.60
2018-12-17T10:42:45.021Z,85.30
2018-12-17T10:45:13.570Z,85.40
2018-12-17T10:47:42.082Z,85.40
2018-12-17T10:50:10.861Z,85.70
2018-12-17T10:52:39.389Z,85.90
2018-12-17T10:55:08.178Z,85.70
2018-12-17T10:57:36.703Z,85.60
2018-12-17T11:00:07.337Z,85.70
2018-12-17T11:02:35.869Z,85.60
2018-12-17T11:05:13.402Z,85.40
2018-12-17T11:07:41.953Z,85.20
2018-12-17T11:10:10.594Z,85.30
2018-12-17T11:12:39.128Z,85.30
2018-12-17T11:15:09.938Z,85.50
2018-12-17T11:17:38.681Z,85.50
2018-12-17T11:20:09.241Z,85.20
2018-12-17T11:22:37.774Z,85.10
2018-12-17T11:25:06.934Z,85.00
2018-12-17T11:27:35.543Z,84.90
2018-12-17T11:30:05.525Z,85.00
2018-12-17T11:32:34.130Z,84.90
2018-12-17T11:35:02.657Z,84.80
2018-12-17T11:37:31.183Z,85.00
2018-12-17T11:39:59.746Z,84.90
2018-12-17T11:42:28.261Z,84.60
2018-12-17T11:44:56.791Z,84.50
2018-12-17T11:47:25.330Z,84.30
2018-12-17T11:49:53.849Z,84.10
2018-12-17T11:52:22.375Z,83.70
2018-12-17T11:54:50.926Z,83.40
2018-12-17T11:57:29.170Z,83.80
2018-12-17T11:59:57.720Z,83.80
2018-12-17T12:02:26.230Z,83.80
2018-12-17T12:04:54.769Z,84.10
2018-12-17T12:07:23.326Z,84.10
2018-12-17T12:09:51.851Z,83.90
2018-12-17T12:12:20.398Z,83.80
2018-12-17T12:14:49.065Z,83.80
2018-12-17T12:17:17.591Z,83.60
2018-12-17T12:19:46.124Z,83.70
2018-12-17T12:22:14.682Z,83.60
2018-12-17T12:24:43.220Z,83.50
2018-12-17T12:27:11.758Z,83.60
2018-12-17T12:29:40.278Z,83.60
2018-12-17T12:32:08.811Z,83.60
2018-12-17T12:34:37.314Z,83.60
2018-12-17T12:37:05.834Z,83.60
2018-12-17T12:39:34.355Z,83.70
2018-12-17T12:42:02.886Z,83.70
2018-12-17T12:44:31.409Z,84.40
2018-12-17T12:46:59.945Z,85.10
2018-12-17T12:49:28.490Z,85.30
2018-12-17T12:51:57.034Z,85.20
2018-12-17T12:54:25.566Z,85.20
2018-12-17T12:56:54.102Z,85.40
2018-12-17T12:59:22.618Z,85.50
2018-12-17T13:01:51.158Z,85.40
2018-12-17T13:04:19.707Z,85.20
2018-12-17T13:06:48.235Z,85.00
2018-12-17T13:09:18.817Z,84.70
2018-12-17T13:11:47.350Z,85.00
2018-12-17T13:14:15.887Z,85.30
2018-12-17T13:16:44.422Z,85.60
2018-12-17T13:19:12.929Z,85.80
2018-12-17T13:21:41.474Z,86.20
2018-12-17T13:24:10.007Z,86.70
2018-12-17T13:26:38.534Z,87.10
2018-12-17T13:29:07.082Z,87.20
2018-12-17T13:31:35.646Z,87.10
2018-12-17T13:34:04.206Z,87.20
2018-12-17T13:36:32.766Z,87.10
2018-12-17T13:39:01.318Z,87.20
2018-12-17T13:41:29.845Z,87.20
2018-12-17T13:43:58.382Z,87.20
2018-12-17T13:46:26.913Z,87.10
2018-12-17T13:48:55.769Z,87.20
2018-12-17T13:51:29.564Z,87.30
2018-12-17T13:53:59.954Z,87.40
2018-12-17T13:56:29.162Z,87.60
2018-12-17T13:58:57.690Z,87.80
2018-12-17T14:01:26.221Z,88.10
2018-12-17T14:03:54.770Z,88.40
2018-12-17T14:06:23.568Z,88.50
2018-12-17T14:08:52.107Z,88.60
2018-12-17T14:11:20.634Z,88.50
2018-12-17T14:13:49.172Z,88.60
2018-12-17T14:16:17.726Z,88.60
2018-12-17T14:18:51.610Z,88.70
2018-12-17T14:21:25.470Z,88.70
2018-12-17T14:23:54.078Z,88.90
2018-12-17T14:26:22.611Z,88.90
2018-12-17T14:28:51.154Z,88.80
2018-12-17T14:31:19.713Z,88.90
2018-12-17T14:33:48.237Z,88.80
2018-12-17T14:36:16.762Z,88.70
2018-12-17T14:38:45.301Z,88.70
2018-12-17T14:41:13.833Z,88.70
2018-12-17T14:43:42.371Z,88.60
2018-12-17T14:46:10.903Z,88.70
2018-12-17T14:48:39.411Z,88.70
2018-12-17T14:51:07.951Z,88.70
2018-12-17T14:53:36.474Z,88.70
2018-12-17T14:56:05.034Z,88.60
2018-12-17T14:58:33.545Z,88.60
2018-12-17T15:01:02.075Z,88.50
2018-12-17T15:03:30.609Z,88.50
2018-12-17T15:05:59.114Z,89.30
2018-12-17T15:08:28.523Z,88.80
2018-12-17T15:10:57.054Z,88.90
2018-12-17T15:13:25.698Z,89.10
2018-12-17T15:15:54.286Z,89.20
2018-12-17T15:18:22.806Z,89.10
2018-12-17T15:20:51.358Z,89.30
2018-12-17T15:23:19.902Z,89.30
2018-12-17T15:25:48.460Z,89.30
2018-12-17T15:28:17.035Z,89.40
2018-12-17T15:30:45.573Z,89.40
2018-12-17T15:33:14.094Z,89.40
2018-12-17T15:35:42.727Z,89.50
2018-12-17T15:38:11.294Z,89.40
2018-12-17T15:40:39.842Z,89.40
2018-12-17T15:43:08.354Z,89.30
2018-12-17T15:45:36.897Z,89.40
2018-12-17T15:48:05.430Z,89.60
2018-12-17T15:50:33.997Z,89.70
2018-12-17T15:53:02.554Z,89.70
2018-12-17T15:55:31.078Z,89.60
2018-12-17T15:57:59.595Z,89.50
2018-12-17T16:00:28.159Z,89.40
2018-12-17T16:02:56.680Z,89.50
2018-12-17T16:05:25.218Z,89.50
2018-12-17T16:07:53.789Z,89.50
2018-12-17T16:10:22.324Z,89.60
2018-12-17T16:12:50.854Z,89.60
2018-12-17T16:15:19.383Z,89.70
2018-12-17T16:17:47.907Z,89.70
2018-12-17T16:20:16.460Z,89.60
2018-12-17T16:22:45.004Z,89.70
2018-12-17T16:25:13.658Z,89.90
2018-12-17T16:27:42.193Z,90.00
2018-12-17T16:30:11.985Z,90.00
2018-12-17T16:32:40.507Z,90.00
2018-12-17T16:35:09.195Z,90.00
2018-12-17T16:37:37.727Z,89.90
2018-12-17T16:40:07.099Z,89.90
2018-12-17T16:42:35.643Z,89.90
2018-12-17T16:45:04.778Z,90.00
2018-12-17T16:47:33.317Z,90.00
2018-12-17T16:50:01.852Z,90.00
2018-12-17T16:52:30.379Z,89.90
2018-12-17T16:54:58.899Z,89.90
2018-12-17T16:57:27.446Z,90.10
2018-12-17T16:59:55.955Z,90.00
2018-12-17T17:02:24.471Z,90.00
2018-12-17T17:04:53.009Z,89.90
2018-12-17T17:07:21.541Z,89.90
2018-12-17T17:09:50.113Z,89.90
2018-12-17T17:12:18.644Z,89.80
2018-12-17T17:14:48.320Z,89.90
2018-12-17T17:17:17.009Z,90.00
2018-12-17T17:19:50.816Z,90.00
2018-12-17T17:22:16.073Z,90.00
2018-12-17T17:24:44.633Z,90.30
2018-12-17T17:27:13.181Z,90.00
2018-12-17T17:29:41.729Z,90.00
2018-12-17T17:32:11.744Z,90.10
2018-12-17T17:34:40.625Z,90.10
2018-12-17T17:37:09.141Z,90.10
2018-12-17T17:39:37.661Z,90.10
2018-12-17T17:42:06.210Z,90.10
2018-12-17T17:44:34.734Z,90.20
2018-12-17T17:47:06.036Z,90.20
2018-12-17T17:49:34.670Z,90.10
2018-12-17T17:52:03.230Z,90.10
2018-12-17T17:54:31.787Z,90.10
2018-12-17T17:57:00.306Z,90.50
2018-12-17T17:59:28.853Z,90.20
2018-12-17T18:01:57.377Z,90.10
2018-12-17T18:04:25.899Z,90.30
2018-12-17T18:06:54.433Z,90.00
2018-12-17T18:09:22.983Z,90.00
2018-12-17T18:11:51.503Z,90.10
2018-12-17T18:14:20.026Z,90.00
2018-12-17T18:16:48.545Z,90.00
2018-12-17T18:19:17.066Z,90.00
2018-12-17T18:21:45.598Z,90.00
2018-12-17T18:24:14.117Z,90.00
2018-12-17T18:26:42.745Z,90.00
2018-12-17T18:29:11.276Z,89.80
2018-12-17T18:31:39.819Z,89.90
2018-12-17T18:34:08.342Z,89.80
2018-12-17T18:36:36.891Z,89.90
2018-12-17T18:39:08.166Z,90.00
2018-12-17T18:41:36.745Z,90.00
2018-12-17T18:44:05.362Z,90.00
2018-12-17T18:46:33.966Z,90.00
2018-12-17T18:49:03.721Z,89.90
2018-12-17T18:51:32.263Z,90.00
2018-12-17T18:54:00.810Z,90.00
2018-12-17T18:56:29.406Z,90.00
2018-12-17T18:58:57.922Z,90.00
2018-12-17T19:01:26.681Z,90.00
2018-12-17T19:03:55.213Z,90.00
2018-12-17T19:06:23.769Z,90.10
2018-12-17T19:08:52.321Z,90.10
2018-12-17T19:11:20.862Z,90.10
2018-12-17T19:13:49.433Z,90.10
2018-12-17T19:16:17.962Z,90.20
2018-12-17T19:18:46.478Z,90.20
2018-12-17T19:21:15.018Z,90.30
2018-12-17T19:23:43.546Z,90.30
2018-12-17T19:26:12.081Z,90.30
2018-12-17T19:28:40.617Z,90.40
2018-12-17T19:31:09.176Z,90.40
2018-12-17T19:33:37.830Z,90.40
2018-12-17T19:36:06.371Z,90.40
2018-12-17T19:38:34.911Z,90.40
2018-12-17T19:41:03.462Z,90.40
2018-12-17T19:43:31.995Z,90.40
2018-12-17T19:46:00.546Z,90.40
2018-12-17T19:48:29.079Z,90.40
2018-12-17T19:50:57.618Z,90.50
2018-12-17T19:53:26.140Z,90.50
2018-12-17T19:55:54.662Z,90.50
2018-12-17T19:58:23.187Z,90.60
2018-12-17T20:00:51.722Z,90.60
2018-12-17T20:03:20.251Z,90.60
2018-12-17T20:05:48.774Z,90.60
2018-12-17T20:08:17.301Z,90.50
2018-12-17T20:10:46.002Z,90.50
2018-12-17T20:13:14.628Z,90.40
2018-12-17T20:15:43.180Z,90.60
2018-12-17T20:18:11.709Z,90.30
2018-12-17T20:20:40.241Z,90.20
2018-12-17T20:23:08.751Z,90.10
2018-12-17T20:25:37.289Z,90.00
2018-12-17T20:28:06.098Z,89.70
2018-12-17T20:30:34.674Z,89.50
2018-12-17T20:33:03.326Z,89.30
2018-12-17T20:35:31.866Z,89.20
2018-12-17T20:38:00.390Z,89.10
2018-12-17T20:40:28.934Z,89.20
2018-12-17T20:42:57.482Z,89.30
2018-12-17T20:45:26.023Z,89.40
2018-12-17T20:47:54.597Z,89.60
2018-12-17T20:50:23.152Z,89.70
2018-12-17T20:52:51.954Z,89.80
2018-12-17T20:55:20.494Z,90.00
2018-12-17T20:57:49.047Z,89.90
2018-12-17T21:00:17.596Z,90.00
2018-12-17T21:02:46.114Z,90.00
2018-12-17T21:05:14.649Z,90.00
2018-12-17T21:07:43.176Z,89.80
2018-12-17T21:10:11.838Z,89.80
2018-12-17T21:12:40.382Z,89.90
2018-12-17T21:15:09.054Z,89.90
2018-12-17T21:17:37.607Z,89.80
2018-12-17T21:20:06.505Z,89.90
2018-12-17T21:22:35.038Z,90.00
2018-12-17T21:25:03.910Z,90.00
2018-12-17T21:27:32.452Z,90.10
2018-12-17T21:30:00.994Z,90.10
2018-12-17T21:32:29.535Z,90.00
2018-12-17T21:34:58.074Z,90.00
2018-12-17T21:37:26.629Z,90.00
2018-12-17T21:39:55.152Z,90.00
2018-12-17T21:42:23.674Z,90.00
2018-12-17T21:44:52.219Z,90.00
2018-12-17T21:47:20.743Z,90.00
2018-12-17T21:49:49.266Z,90.00
2018-12-17T21:52:17.798Z,90.00
2018-12-17T21:54:46.322Z,90.20
2018-12-17T21:57:14.865Z,90.10
2018-12-17T21:59:43.414Z,90.10
2018-12-17T22:02:11.973Z,90.10
2018-12-17T22:04:40.508Z,90.20
2018-12-17T22:07:09.548Z,90.10
2018-12-17T22:09:38.058Z,90.10
2018-12-17T22:12:06.590Z,90.10
2018-12-17T22:14:35.122Z,90.10
2018-12-17T22:17:03.645Z,90.10
2018-12-17T22:19:32.187Z,90.10
2018-12-17T22:22:00.705Z,90.10
2018-12-17T22:24:29.238Z,90.10
2018-12-17T22:26:57.770Z,90.10
2018-12-17T22:29:26.290Z,90.10
2018-12-17T22:31:54.809Z,90.10
2018-12-17T22:34:23.352Z,90.00
2018-12-17T22:36:51.886Z,90.00
2018-12-17T22:39:20.422Z,90.00
2018-12-17T22:41:48.949Z,90.00
2018-12-17T22:44:17.478Z,90.00
2018-12-17T22:46:46.041Z,90.00
2018-12-17T22:49:14.718Z,89.90
2018-12-17T22:51:43.482Z,89.80
2018-12-17T22:54:11.998Z,89.80
2018-12-17T22:56:40.521Z,89.70
2018-12-17T22:59:09.045Z,89.60
2018-12-17T23:01:37.569Z,89.60
2018-12-17T23:04:06.361Z,89.50
2018-12-17T23:06:34.882Z,89.40
2018-12-17T23:09:07.353Z,89.40
2018-12-17T23:11:52.317Z,89.30
2018-12-17T23:14:32.242Z,89.30
2018-12-17T23:17:11.809Z,89.10
2018-12-17T23:19:44.526Z,89.10
2018-12-17T23:22:13.314Z,89.10
2018-12-17T23:24:41.858Z,89.20
2018-12-17T23:27:16.858Z,89.20
2018-12-17T23:29:45.455Z,89.20
2018-12-17T23:32:14.121Z,89.30
2018-12-17T23:34:42.659Z,89.30
2018-12-17T23:37:11.566Z,89.50
2018-12-17T23:39:40.120Z,90.10
2018-12-17T23:42:08.689Z,90.00
2018-12-17T23:44:37.646Z,90.10
2018-12-17T23:47:06.263Z,90.10
2018-12-17T23:49:34.854Z,90.20
2018-12-17T23:52:03.372Z,90.10
2018-12-17T23:54:31.899Z,90.10
2018-12-17T23:57:00.430Z,90.10
2018-12-17T23:59:28.957Z,90.10
